sensor_id;sensor_type;location;lat;lon;timestamp;P1;durP1;ratioP1;P2;durP2;ratioP2
69523;SDS011;56723;42.694;23.286;2023-02-18T00:01:02;38.70;;;20.50;;
69523;SDS011;56723;42.694;23.286;2023-02-18T00:03:34;48.33;;;25.20;;
69523;SDS011;56723;42.694;23.286;2023-02-18T00:06:08;44.40;;;23.20;;
69523;SDS011;56723;42.694;23.286;2023-02-18T00:08:37;51.03;;;25.53;;
69523;SDS011;56723;42.694;23.286;2023-02-18T00:11:05;51.67;;;27.87;;
69523;SDS011;56723;42.694;23.286;2023-02-18T00:13:32;51.47;;;26.80;;
69523;SDS011;56723;42.694;23.286;2023-02-18T00:16:02;53.07;;;27.50;;
69523;SDS011;56723;42.694;23.286;2023-02-18T00:18:32;49.70;;;25.27;;
69523;SDS011;56723;42.694;23.286;2023-02-18T00:20:59;45.13;;;23.77;;
69523;SDS011;56723;42.694;23.286;2023-02-18T00:23:26;46.43;;;23.07;;
69523;SDS011;56723;42.694;23.286;2023-02-18T00:25:59;37.87;;;20.27;;
69523;SDS011;56723;42.694;23.286;2023-02-18T00:28:53;41.80;;;21.10;;
69523;SDS011;56723;42.694;23.286;2023-02-18T00:31:21;44.97;;;23.57;;
69523;SDS011;56723;42.694;23.286;2023-02-18T00:33:50;50.77;;;24.83;;
69523;SDS011;56723;42.694;23.286;2023-02-18T00:36:19;42.37;;;24.00;;
69523;SDS011;56723;42.694;23.286;2023-02-18T00:38:48;38.27;;;20.03;;
69523;SDS011;56723;42.694;23.286;2023-02-18T00:41:17;41.40;;;23.60;;
69523;SDS011;56723;42.694;23.286;2023-02-18T00:43:45;39.17;;;21.57;;
69523;SDS011;56723;42.694;23.286;2023-02-18T00:46:12;38.13;;;20.53;;
69523;SDS011;56723;42.694;23.286;2023-02-18T00:48:39;42.40;;;21.40;;
69523;SDS011;56723;42.694;23.286;2023-02-18T00:51:08;43.88;;;22.17;;
69523;SDS011;56723;42.694;23.286;2023-02-18T00:53:36;41.70;;;22.43;;
69523;SDS011;56723;42.694;23.286;2023-02-18T00:56:04;43.20;;;20.87;;
69523;SDS011;56723;42.694;23.286;2023-02-18T00:58:33;35.83;;;18.95;;
69523;SDS011;56723;42.694;23.286;2023-02-18T01:01:03;41.37;;;22.47;;
69523;SDS011;56723;42.694;23.286;2023-02-18T01:03:33;40.70;;;21.63;;
69523;SDS011;56723;42.694;23.286;2023-02-18T01:06:00;42.20;;;20.37;;
69523;SDS011;56723;42.694;23.286;2023-02-18T01:08:28;52.40;;;27.00;;
69523;SDS011;56723;42.694;23.286;2023-02-18T01:10:56;46.63;;;26.67;;
69523;SDS011;56723;42.694;23.286;2023-02-18T01:13:24;50.00;;;26.33;;
69523;SDS011;56723;42.694;23.286;2023-02-18T01:15:52;47.97;;;24.67;;
69523;SDS011;56723;42.694;23.286;2023-02-18T01:18:19;43.77;;;23.57;;
69523;SDS011;56723;42.694;23.286;2023-02-18T01:20:47;48.20;;;24.20;;
69523;SDS011;56723;42.694;23.286;2023-02-18T01:23:13;45.50;;;23.90;;
69523;SDS011;56723;42.694;23.286;2023-02-18T01:25:41;44.97;;;23.92;;
69523;SDS011;56723;42.694;23.286;2023-02-18T01:28:08;47.27;;;23.67;;
69523;SDS011;56723;42.694;23.286;2023-02-18T01:30:36;47.63;;;24.00;;
69523;SDS011;56723;42.694;23.286;2023-02-18T01:33:04;44.07;;;23.53;;
69523;SDS011;56723;42.694;23.286;2023-02-18T01:35:31;43.67;;;22.67;;
69523;SDS011;56723;42.694;23.286;2023-02-18T01:37:59;39.50;;;20.90;;
69523;SDS011;56723;42.694;23.286;2023-02-18T01:40:27;35.17;;;20.17;;
69523;SDS011;56723;42.694;23.286;2023-02-18T01:42:55;31.27;;;19.17;;
69523;SDS011;56723;42.694;23.286;2023-02-18T01:53:33;40.80;;;23.50;;
69523;SDS011;56723;42.694;23.286;2023-02-18T01:56:05;45.07;;;23.83;;
69523;SDS011;56723;42.694;23.286;2023-02-18T01:58:36;38.77;;;21.10;;
69523;SDS011;56723;42.694;23.286;2023-02-18T02:01:03;42.50;;;24.13;;
69523;SDS011;56723;42.694;23.286;2023-02-18T02:03:31;43.77;;;23.33;;
69523;SDS011;56723;42.694;23.286;2023-02-18T02:05:58;42.03;;;19.80;;
69523;SDS011;56723;42.694;23.286;2023-02-18T02:08:25;42.07;;;23.67;;
69523;SDS011;56723;42.694;23.286;2023-02-18T02:11:05;35.47;;;19.80;;
69523;SDS011;56723;42.694;23.286;2023-02-18T02:16:52;43.60;;;21.00;;
69523;SDS011;56723;42.694;23.286;2023-02-18T02:35:36;34.50;;;17.60;;
69523;SDS011;56723;42.694;23.286;2023-02-18T02:38:46;34.10;;;18.13;;
69523;SDS011;56723;42.694;23.286;2023-02-18T02:43:57;30.77;;;18.77;;
69523;SDS011;56723;42.694;23.286;2023-02-18T02:46:42;29.07;;;16.27;;
69523;SDS011;56723;42.694;23.286;2023-02-18T02:54:36;31.87;;;17.13;;
69523;SDS011;56723;42.694;23.286;2023-02-18T02:57:08;36.90;;;17.13;;
69523;SDS011;56723;42.694;23.286;2023-02-18T02:59:56;33.37;;;17.23;;
69523;SDS011;56723;42.694;23.286;2023-02-18T03:08:06;32.83;;;18.13;;
69523;SDS011;56723;42.694;23.286;2023-02-18T03:10:47;32.20;;;17.33;;
69523;SDS011;56723;42.694;23.286;2023-02-18T03:13:33;34.47;;;18.27;;
69523;SDS011;56723;42.694;23.286;2023-02-18T03:18:56;36.57;;;20.73;;
69523;SDS011;56723;42.694;23.286;2023-02-18T03:26:51;32.53;;;17.67;;
69523;SDS011;56723;42.694;23.286;2023-02-18T03:29:21;32.30;;;17.33;;
69523;SDS011;56723;42.694;23.286;2023-02-18T03:31:51;37.17;;;21.57;;
69523;SDS011;56723;42.694;23.286;2023-02-18T03:34:30;34.70;;;20.93;;
69523;SDS011;56723;42.694;23.286;2023-02-18T03:36:59;34.27;;;19.60;;
69523;SDS011;56723;42.694;23.286;2023-02-18T03:39:28;37.60;;;18.83;;
69523;SDS011;56723;42.694;23.286;2023-02-18T03:41:56;38.90;;;19.40;;
69523;SDS011;56723;42.694;23.286;2023-02-18T03:44:24;42.77;;;22.93;;
69523;SDS011;56723;42.694;23.286;2023-02-18T03:46:51;37.93;;;20.13;;
69523;SDS011;56723;42.694;23.286;2023-02-18T03:49:18;35.10;;;19.60;;
69523;SDS011;56723;42.694;23.286;2023-02-18T03:51:46;43.20;;;20.17;;
69523;SDS011;56723;42.694;23.286;2023-02-18T03:54:13;36.37;;;20.27;;
69523;SDS011;56723;42.694;23.286;2023-02-18T03:56:41;35.77;;;19.57;;
69523;SDS011;56723;42.694;23.286;2023-02-18T03:59:09;33.33;;;19.93;;
69523;SDS011;56723;42.694;23.286;2023-02-18T04:01:37;34.42;;;19.60;;
69523;SDS011;56723;42.694;23.286;2023-02-18T04:04:04;32.97;;;20.20;;
69523;SDS011;56723;42.694;23.286;2023-02-18T04:06:31;34.13;;;18.90;;
69523;SDS011;56723;42.694;23.286;2023-02-18T04:08:58;33.33;;;18.70;;
69523;SDS011;56723;42.694;23.286;2023-02-18T04:11:25;32.13;;;18.63;;
69523;SDS011;56723;42.694;23.286;2023-02-18T04:13:52;29.73;;;18.23;;
69523;SDS011;56723;42.694;23.286;2023-02-18T04:16:19;32.27;;;17.97;;
69523;SDS011;56723;42.694;23.286;2023-02-18T04:18:46;31.20;;;15.87;;
69523;SDS011;56723;42.694;23.286;2023-02-18T04:21:13;31.53;;;18.33;;
69523;SDS011;56723;42.694;23.286;2023-02-18T04:23:39;30.37;;;16.53;;
69523;SDS011;56723;42.694;23.286;2023-02-18T04:26:07;32.43;;;19.77;;
69523;SDS011;56723;42.694;23.286;2023-02-18T04:28:34;33.23;;;17.47;;
69523;SDS011;56723;42.694;23.286;2023-02-18T04:31:01;33.03;;;18.13;;
69523;SDS011;56723;42.694;23.286;2023-02-18T04:33:29;32.33;;;17.30;;
69523;SDS011;56723;42.694;23.286;2023-02-18T04:35:55;30.43;;;17.13;;
69523;SDS011;56723;42.694;23.286;2023-02-18T04:38:22;29.43;;;17.63;;
69523;SDS011;56723;42.694;23.286;2023-02-18T04:40:49;27.60;;;15.67;;
69523;SDS011;56723;42.694;23.286;2023-02-18T05:41:05;34.13;;;18.80;;
69523;SDS011;56723;42.694;23.286;2023-02-18T05:43:32;30.50;;;15.43;;
69523;SDS011;56723;42.694;23.286;2023-02-18T05:46:22;33.73;;;18.77;;
69523;SDS011;56723;42.694;23.286;2023-02-18T05:48:49;30.23;;;18.50;;
69523;SDS011;56723;42.694;23.286;2023-02-18T05:51:16;37.87;;;18.43;;
69523;SDS011;56723;42.694;23.286;2023-02-18T05:53:42;38.07;;;19.70;;
69523;SDS011;56723;42.694;23.286;2023-02-18T05:56:09;34.87;;;20.00;;
69523;SDS011;56723;42.694;23.286;2023-02-18T05:58:37;38.33;;;18.43;;
69523;SDS011;56723;42.694;23.286;2023-02-18T06:01:04;34.10;;;18.23;;
69523;SDS011;56723;42.694;23.286;2023-02-18T06:03:31;35.47;;;17.83;;
69523;SDS011;56723;42.694;23.286;2023-02-18T06:05:58;37.63;;;21.33;;
69523;SDS011;56723;42.694;23.286;2023-02-18T06:08:25;42.20;;;20.93;;
69523;SDS011;56723;42.694;23.286;2023-02-18T06:10:53;33.93;;;18.07;;
69523;SDS011;56723;42.694;23.286;2023-02-18T06:13:20;37.87;;;21.03;;
69523;SDS011;56723;42.694;23.286;2023-02-18T06:15:49;41.63;;;21.00;;
69523;SDS011;56723;42.694;23.286;2023-02-18T06:18:17;43.63;;;20.67;;
69523;SDS011;56723;42.694;23.286;2023-02-18T06:20:45;34.80;;;17.53;;
69523;SDS011;56723;42.694;23.286;2023-02-18T06:48:47;33.30;;;16.73;;
69523;SDS011;56723;42.694;23.286;2023-02-18T06:51:14;30.63;;;14.70;;
69523;SDS011;56723;42.694;23.286;2023-02-18T06:53:41;36.47;;;17.03;;
69523;SDS011;56723;42.694;23.286;2023-02-18T06:56:09;32.07;;;18.27;;
69523;SDS011;56723;42.694;23.286;2023-02-18T06:58:36;35.90;;;19.43;;
69523;SDS011;56723;42.694;23.286;2023-02-18T07:01:04;39.37;;;19.07;;
69523;SDS011;56723;42.694;23.286;2023-02-18T07:03:31;37.20;;;19.87;;
69523;SDS011;56723;42.694;23.286;2023-02-18T07:05:58;29.27;;;17.60;;
69523;SDS011;56723;42.694;23.286;2023-02-18T07:08:25;32.70;;;17.63;;
69523;SDS011;56723;42.694;23.286;2023-02-18T07:10:52;32.03;;;16.57;;
69523;SDS011;56723;42.694;23.286;2023-02-18T07:13:19;31.50;;;18.77;;
69523;SDS011;56723;42.694;23.286;2023-02-18T07:15:46;39.50;;;18.23;;
69523;SDS011;56723;42.694;23.286;2023-02-18T07:18:13;30.60;;;17.97;;
69523;SDS011;56723;42.694;23.286;2023-02-18T07:20:40;33.70;;;16.80;;
69523;SDS011;56723;42.694;23.286;2023-02-18T07:23:06;34.63;;;19.83;;
69523;SDS011;56723;42.694;23.286;2023-02-18T07:25:33;37.83;;;18.60;;
69523;SDS011;56723;42.694;23.286;2023-02-18T07:28:00;31.50;;;17.23;;
69523;SDS011;56723;42.694;23.286;2023-02-18T07:30:27;29.87;;;16.83;;
69523;SDS011;56723;42.694;23.286;2023-02-18T07:32:54;42.53;;;19.57;;
69523;SDS011;56723;42.694;23.286;2023-02-18T07:35:21;36.30;;;19.07;;
69523;SDS011;56723;42.694;23.286;2023-02-18T07:37:48;35.40;;;16.40;;
69523;SDS011;56723;42.694;23.286;2023-02-18T07:40:17;35.30;;;17.23;;
69523;SDS011;56723;42.694;23.286;2023-02-18T07:42:47;35.27;;;17.77;;
69523;SDS011;56723;42.694;23.286;2023-02-18T07:45:14;28.77;;;15.10;;
69523;SDS011;56723;42.694;23.286;2023-02-18T07:50:11;27.13;;;14.87;;
69523;SDS011;56723;42.694;23.286;2023-02-18T07:52:38;30.40;;;15.27;;
69523;SDS011;56723;42.694;23.286;2023-02-18T07:55:05;31.37;;;15.80;;
69523;SDS011;56723;42.694;23.286;2023-02-18T07:57:32;27.60;;;15.23;;
69523;SDS011;56723;42.694;23.286;2023-02-18T07:59:59;27.30;;;14.63;;
69523;SDS011;56723;42.694;23.286;2023-02-18T08:02:26;27.03;;;14.60;;
69523;SDS011;56723;42.694;23.286;2023-02-18T08:04:53;28.10;;;15.70;;
69523;SDS011;56723;42.694;23.286;2023-02-18T08:07:20;29.13;;;16.17;;
69523;SDS011;56723;42.694;23.286;2023-02-18T08:09:48;34.67;;;16.73;;
69523;SDS011;56723;42.694;23.286;2023-02-18T08:12:16;25.23;;;14.57;;
69523;SDS011;56723;42.694;23.286;2023-02-18T08:14:43;30.07;;;16.93;;
69523;SDS011;56723;42.694;23.286;2023-02-18T08:17:10;26.67;;;14.57;;
69523;SDS011;56723;42.694;23.286;2023-02-18T08:19:37;27.93;;;16.03;;
69523;SDS011;56723;42.694;23.286;2023-02-18T08:22:04;31.23;;;17.10;;
69523;SDS011;56723;42.694;23.286;2023-02-18T08:24:31;30.30;;;15.90;;
69523;SDS011;56723;42.694;23.286;2023-02-18T08:26:57;24.53;;;16.43;;
69523;SDS011;56723;42.694;23.286;2023-02-18T08:29:27;27.10;;;15.73;;
69523;SDS011;56723;42.694;23.286;2023-02-18T08:31:54;27.67;;;16.77;;
69523;SDS011;56723;42.694;23.286;2023-02-18T08:34:23;26.90;;;16.63;;
69523;SDS011;56723;42.694;23.286;2023-02-18T08:36:51;24.23;;;14.57;;
69523;SDS011;56723;42.694;23.286;2023-02-18T08:39:18;27.03;;;14.93;;
69523;SDS011;56723;42.694;23.286;2023-02-18T08:41:45;31.43;;;15.93;;
69523;SDS011;56723;42.694;23.286;2023-02-18T08:44:11;28.37;;;17.23;;
69523;SDS011;56723;42.694;23.286;2023-02-18T08:46:38;27.50;;;17.07;;
69523;SDS011;56723;42.694;23.286;2023-02-18T08:49:05;29.83;;;16.10;;
69523;SDS011;56723;42.694;23.286;2023-02-18T08:51:33;26.47;;;15.97;;
69523;SDS011;56723;42.694;23.286;2023-02-18T08:54:00;29.33;;;16.17;;
69523;SDS011;56723;42.694;23.286;2023-02-18T08:56:27;28.77;;;14.73;;
69523;SDS011;56723;42.694;23.286;2023-02-18T08:58:54;26.33;;;15.60;;
69523;SDS011;56723;42.694;23.286;2023-02-18T09:01:21;29.63;;;13.67;;
69523;SDS011;56723;42.694;23.286;2023-02-18T09:03:48;25.57;;;11.90;;
69523;SDS011;56723;42.694;23.286;2023-02-18T09:06:15;23.00;;;10.73;;
69523;SDS011;56723;42.694;23.286;2023-02-18T09:08:42;17.97;;;9.60;;
69523;SDS011;56723;42.694;23.286;2023-02-18T09:11:09;20.30;;;9.23;;
69523;SDS011;56723;42.694;23.286;2023-02-18T09:13:37;15.97;;;9.40;;
69523;SDS011;56723;42.694;23.286;2023-02-18T09:16:05;17.13;;;9.37;;
69523;SDS011;56723;42.694;23.286;2023-02-18T09:18:34;18.47;;;9.57;;
69523;SDS011;56723;42.694;23.286;2023-02-18T09:21:02;17.97;;;9.03;;
69523;SDS011;56723;42.694;23.286;2023-02-18T09:23:32;19.33;;;9.55;;
69523;SDS011;56723;42.694;23.286;2023-02-18T09:26:02;17.95;;;9.82;;
69523;SDS011;56723;42.694;23.286;2023-02-18T09:28:34;15.15;;;8.02;;
69523;SDS011;56723;42.694;23.286;2023-02-18T09:31:05;19.25;;;8.60;;
69523;SDS011;56723;42.694;23.286;2023-02-18T09:33:34;15.55;;;8.25;;
69523;SDS011;56723;42.694;23.286;2023-02-18T09:36:03;20.90;;;9.20;;
69523;SDS011;56723;42.694;23.286;2023-02-18T09:38:30;17.38;;;8.82;;
69523;SDS011;56723;42.694;23.286;2023-02-18T09:40:58;16.55;;;8.65;;
69523;SDS011;56723;42.694;23.286;2023-02-18T09:45:56;19.98;;;9.25;;
69523;SDS011;56723;42.694;23.286;2023-02-18T09:50:55;14.93;;;7.85;;
69523;SDS011;56723;42.694;23.286;2023-02-18T09:53:23;15.68;;;7.30;;
69523;SDS011;56723;42.694;23.286;2023-02-18T09:55:51;17.65;;;9.90;;
69523;SDS011;56723;42.694;23.286;2023-02-18T09:58:22;19.85;;;9.00;;
69523;SDS011;56723;42.694;23.286;2023-02-18T10:01:38;14.65;;;7.35;;
69523;SDS011;56723;42.694;23.286;2023-02-18T10:03:41;12.32;;;7.35;;
69523;SDS011;56723;42.694;23.286;2023-02-18T10:06:52;12.40;;;7.80;;
69523;SDS011;56723;42.694;23.286;2023-02-18T10:09:05;10.40;;;5.55;;
69523;SDS011;56723;42.694;23.286;2023-02-18T10:11:42;14.73;;;6.05;;
69523;SDS011;56723;42.694;23.286;2023-02-18T10:14:14;7.25;;;4.93;;
69523;SDS011;56723;42.694;23.286;2023-02-18T10:16:42;7.78;;;4.40;;
69523;SDS011;56723;42.694;23.286;2023-02-18T10:22:07;7.22;;;4.82;;
69523;SDS011;56723;42.694;23.286;2023-02-18T10:24:42;8.35;;;4.50;;
69523;SDS011;56723;42.694;23.286;2023-02-18T10:41:10;6.78;;;3.08;;
69523;SDS011;56723;42.694;23.286;2023-02-18T10:46:47;5.63;;;3.22;;
69523;SDS011;56723;42.694;23.286;2023-02-18T10:52:08;14.27;;;7.22;;
69523;SDS011;56723;42.694;23.286;2023-02-18T10:57:30;13.02;;;6.75;;
69523;SDS011;56723;42.694;23.286;2023-02-18T10:59:58;10.98;;;5.93;;
69523;SDS011;56723;42.694;23.286;2023-02-18T11:02:30;17.92;;;7.07;;
69523;SDS011;56723;42.694;23.286;2023-02-18T11:04:59;20.02;;;11.45;;
69523;SDS011;56723;42.694;23.286;2023-02-18T11:07:43;20.40;;;13.63;;
69523;SDS011;56723;42.694;23.286;2023-02-18T11:10:15;11.30;;;4.53;;
69523;SDS011;56723;42.694;23.286;2023-02-18T11:12:51;10.30;;;4.45;;
69523;SDS011;56723;42.694;23.286;2023-02-18T11:15:23;9.27;;;2.75;;
69523;SDS011;56723;42.694;23.286;2023-02-18T11:17:52;9.68;;;2.90;;
69523;SDS011;56723;42.694;23.286;2023-02-18T11:22:59;4.50;;;2.38;;
69523;SDS011;56723;42.694;23.286;2023-02-18T11:25:51;8.55;;;2.78;;
69523;SDS011;56723;42.694;23.286;2023-02-18T11:30:54;6.22;;;2.55;;
69523;SDS011;56723;42.694;23.286;2023-02-18T11:33:34;6.07;;;2.70;;
69523;SDS011;56723;42.694;23.286;2023-02-18T11:41:29;6.03;;;3.15;;
69523;SDS011;56723;42.694;23.286;2023-02-18T11:47:00;4.18;;;2.35;;
69523;SDS011;56723;42.694;23.286;2023-02-18T11:49:43;6.25;;;2.35;;
69523;SDS011;56723;42.694;23.286;2023-02-18T11:52:25;5.05;;;2.03;;
69523;SDS011;56723;42.694;23.286;2023-02-18T11:55:02;6.93;;;2.70;;
69523;SDS011;56723;42.694;23.286;2023-02-18T11:57:31;4.53;;;2.60;;
69523;SDS011;56723;42.694;23.286;2023-02-18T12:00:00;7.38;;;3.05;;
69523;SDS011;56723;42.694;23.286;2023-02-18T12:02:35;3.40;;;1.70;;
69523;SDS011;56723;42.694;23.286;2023-02-18T12:05:18;6.55;;;2.80;;
69523;SDS011;56723;42.694;23.286;2023-02-18T12:07:58;6.00;;;2.80;;
69523;SDS011;56723;42.694;23.286;2023-02-18T12:10:35;7.55;;;3.00;;
69523;SDS011;56723;42.694;23.286;2023-02-18T12:34:36;6.82;;;3.85;;
69523;SDS011;56723;42.694;23.286;2023-02-18T12:37:39;6.00;;;2.58;;
69523;SDS011;56723;42.694;23.286;2023-02-18T12:48:47;6.05;;;3.53;;
69523;SDS011;56723;42.694;23.286;2023-02-18T12:53:52;6.50;;;3.22;;
69523;SDS011;56723;42.694;23.286;2023-02-18T13:04:46;6.38;;;3.50;;
69523;SDS011;56723;42.694;23.286;2023-02-18T13:15:39;6.43;;;2.90;;
69523;SDS011;56723;42.694;23.286;2023-02-18T13:21:05;6.45;;;2.35;;
69523;SDS011;56723;42.694;23.286;2023-02-18T13:23:39;8.52;;;2.67;;
69523;SDS011;56723;42.694;23.286;2023-02-18T13:26:08;3.97;;;2.13;;
69523;SDS011;56723;42.694;23.286;2023-02-18T13:28:42;6.32;;;3.00;;
69523;SDS011;56723;42.694;23.286;2023-02-18T13:31:26;6.90;;;2.20;;
69523;SDS011;56723;42.694;23.286;2023-02-18T13:34:11;4.95;;;2.40;;
69523;SDS011;56723;42.694;23.286;2023-02-18T13:39:46;6.28;;;2.60;;
69523;SDS011;56723;42.694;23.286;2023-02-18T13:47:37;8.63;;;5.13;;
69523;SDS011;56723;42.694;23.286;2023-02-18T13:50:22;5.90;;;3.20;;
69523;SDS011;56723;42.694;23.286;2023-02-18T13:53:11;8.05;;;5.05;;
69523;SDS011;56723;42.694;23.286;2023-02-18T14:08:43;12.90;;;6.55;;
69523;SDS011;56723;42.694;23.286;2023-02-18T14:13:38;35.33;;;18.33;;
69523;SDS011;56723;42.694;23.286;2023-02-18T14:16:06;55.53;;;28.50;;
69523;SDS011;56723;42.694;23.286;2023-02-18T14:26:22;11.63;;;5.40;;
69523;SDS011;56723;42.694;23.286;2023-02-18T14:28:54;11.40;;;8.05;;
69523;SDS011;56723;42.694;23.286;2023-02-18T14:31:45;8.73;;;3.10;;
69523;SDS011;56723;42.694;23.286;2023-02-18T14:48:34;8.10;;;4.40;;
69523;SDS011;56723;42.694;23.286;2023-02-18T14:51:15;10.00;;;5.50;;
69523;SDS011;56723;42.694;23.286;2023-02-18T14:53:48;11.90;;;6.53;;
69523;SDS011;56723;42.694;23.286;2023-02-18T14:56:16;9.80;;;5.95;;
69523;SDS011;56723;42.694;23.286;2023-02-18T14:58:46;15.85;;;7.13;;
69523;SDS011;56723;42.694;23.286;2023-02-18T15:01:23;13.77;;;7.57;;
69523;SDS011;56723;42.694;23.286;2023-02-18T15:03:53;40.55;;;21.67;;
69523;SDS011;56723;42.694;23.286;2023-02-18T15:06:29;10.82;;;4.80;;
69523;SDS011;56723;42.694;23.286;2023-02-18T15:08:59;11.90;;;7.13;;
69523;SDS011;56723;42.694;23.286;2023-02-18T15:14:31;12.70;;;6.45;;
69523;SDS011;56723;42.694;23.286;2023-02-18T15:17:00;12.02;;;7.65;;
69523;SDS011;56723;42.694;23.286;2023-02-18T15:19:29;12.73;;;6.18;;
69523;SDS011;56723;42.694;23.286;2023-02-18T15:22:03;13.68;;;8.32;;
69523;SDS011;56723;42.694;23.286;2023-02-18T15:24:36;15.73;;;8.52;;
69523;SDS011;56723;42.694;23.286;2023-02-18T15:27:09;69.13;;;32.28;;
69523;SDS011;56723;42.694;23.286;2023-02-18T15:29:42;9.57;;;5.10;;
69523;SDS011;56723;42.694;23.286;2023-02-18T15:32:18;14.18;;;6.28;;
69523;SDS011;56723;42.694;23.286;2023-02-18T15:34:50;10.93;;;4.68;;
69523;SDS011;56723;42.694;23.286;2023-02-18T15:37:19;15.30;;;8.18;;
69523;SDS011;56723;42.694;23.286;2023-02-18T15:39:46;28.70;;;17.05;;
69523;SDS011;56723;42.694;23.286;2023-02-18T15:44:55;15.80;;;7.47;;
69523;SDS011;56723;42.694;23.286;2023-02-18T15:47:27;13.32;;;7.93;;
69523;SDS011;56723;42.694;23.286;2023-02-18T15:49:55;14.98;;;8.70;;
69523;SDS011;56723;42.694;23.286;2023-02-18T15:52:29;13.85;;;6.60;;
69523;SDS011;56723;42.694;23.286;2023-02-18T15:55:42;15.15;;;6.93;;
69523;SDS011;56723;42.694;23.286;2023-02-18T15:57:54;20.13;;;12.20;;
69523;SDS011;56723;42.694;23.286;2023-02-18T16:00:26;13.98;;;9.57;;
69523;SDS011;56723;42.694;23.286;2023-02-18T16:03:43;12.88;;;7.57;;
69523;SDS011;56723;42.694;23.286;2023-02-18T16:05:46;43.28;;;29.65;;
69523;SDS011;56723;42.694;23.286;2023-02-18T16:10:45;15.48;;;9.70;;
69523;SDS011;56723;42.694;23.286;2023-02-18T16:13:18;15.30;;;9.43;;
69523;SDS011;56723;42.694;23.286;2023-02-18T16:15:47;15.85;;;9.40;;
69523;SDS011;56723;42.694;23.286;2023-02-18T16:21:04;10.60;;;6.68;;
69523;SDS011;56723;42.694;23.286;2023-02-18T16:23:58;12.38;;;6.13;;
69523;SDS011;56723;42.694;23.286;2023-02-18T16:26:32;12.75;;;7.38;;
69523;SDS011;56723;42.694;23.286;2023-02-18T16:29:15;10.40;;;6.97;;
69523;SDS011;56723;42.694;23.286;2023-02-18T16:31:42;14.15;;;9.20;;
69523;SDS011;56723;42.694;23.286;2023-02-18T16:34:09;60.55;;;30.08;;
69523;SDS011;56723;42.694;23.286;2023-02-18T16:36:37;29.13;;;14.73;;
69523;SDS011;56723;42.694;23.286;2023-02-18T16:39:25;16.98;;;9.13;;
69523;SDS011;56723;42.694;23.286;2023-02-18T16:41:53;26.30;;;12.77;;
69523;SDS011;56723;42.694;23.286;2023-02-18T16:44:20;57.33;;;28.13;;
69523;SDS011;56723;42.694;23.286;2023-02-18T16:46:47;26.67;;;13.60;;
69523;SDS011;56723;42.694;23.286;2023-02-18T16:49:15;23.42;;;12.20;;
69523;SDS011;56723;42.694;23.286;2023-02-18T16:51:43;27.85;;;16.40;;
69523;SDS011;56723;42.694;23.286;2023-02-18T16:54:14;59.45;;;33.10;;
69523;SDS011;56723;42.694;23.286;2023-02-18T16:56:41;23.13;;;15.00;;
69523;SDS011;56723;42.694;23.286;2023-02-18T16:59:08;20.58;;;13.93;;
69523;SDS011;56723;42.694;23.286;2023-02-18T17:01:36;26.08;;;15.98;;
69523;SDS011;56723;42.694;23.286;2023-02-18T17:04:11;19.80;;;10.80;;
69523;SDS011;56723;42.694;23.286;2023-02-18T17:06:40;13.02;;;6.50;;
69523;SDS011;56723;42.694;23.286;2023-02-18T17:09:18;9.70;;;4.70;;
69523;SDS011;56723;42.694;23.286;2023-02-18T17:11:51;7.97;;;5.30;;
69523;SDS011;56723;42.694;23.286;2023-02-18T17:14:23;8.15;;;4.45;;
69523;SDS011;56723;42.694;23.286;2023-02-18T17:16:50;10.10;;;5.47;;
69523;SDS011;56723;42.694;23.286;2023-02-18T17:19:19;9.85;;;6.05;;
69523;SDS011;56723;42.694;23.286;2023-02-18T17:21:49;11.88;;;6.80;;
69523;SDS011;56723;42.694;23.286;2023-02-18T17:24:16;13.85;;;7.32;;
69523;SDS011;56723;42.694;23.286;2023-02-18T17:26:44;15.00;;;7.85;;
69523;SDS011;56723;42.694;23.286;2023-02-18T17:29:11;15.10;;;8.25;;
69523;SDS011;56723;42.694;23.286;2023-02-18T17:31:40;14.35;;;9.45;;
69523;SDS011;56723;42.694;23.286;2023-02-18T17:34:14;12.40;;;8.43;;
69523;SDS011;56723;42.694;23.286;2023-02-18T17:36:46;11.52;;;7.05;;
69523;SDS011;56723;42.694;23.286;2023-02-18T17:39:13;10.90;;;7.45;;
69523;SDS011;56723;42.694;23.286;2023-02-18T17:41:43;16.88;;;8.50;;
69523;SDS011;56723;42.694;23.286;2023-02-18T17:46:47;11.10;;;6.33;;
69523;SDS011;56723;42.694;23.286;2023-02-18T17:49:18;12.67;;;6.27;;
69523;SDS011;56723;42.694;23.286;2023-02-18T17:51:45;11.50;;;5.67;;
69523;SDS011;56723;42.694;23.286;2023-02-18T17:54:12;8.43;;;5.57;;
69523;SDS011;56723;42.694;23.286;2023-02-18T17:56:41;13.48;;;7.43;;
69523;SDS011;56723;42.694;23.286;2023-02-18T17:59:09;23.47;;;12.50;;
69523;SDS011;56723;42.694;23.286;2023-02-18T18:01:36;29.37;;;11.63;;
69523;SDS011;56723;42.694;23.286;2023-02-18T18:04:05;16.40;;;8.30;;
69523;SDS011;56723;42.694;23.286;2023-02-18T18:06:38;9.73;;;5.75;;
69523;SDS011;56723;42.694;23.286;2023-02-18T18:09:05;11.07;;;5.93;;
69523;SDS011;56723;42.694;23.286;2023-02-18T18:11:32;11.37;;;6.67;;
69523;SDS011;56723;42.694;23.286;2023-02-18T18:13:59;44.23;;;25.60;;
69523;SDS011;56723;42.694;23.286;2023-02-18T18:16:26;11.10;;;7.20;;
69523;SDS011;56723;42.694;23.286;2023-02-18T18:18:53;10.90;;;5.95;;
69523;SDS011;56723;42.694;23.286;2023-02-18T18:21:21;21.97;;;10.87;;
69523;SDS011;56723;42.694;23.286;2023-02-18T18:23:49;19.27;;;10.10;;
69523;SDS011;56723;42.694;23.286;2023-02-18T18:26:16;18.23;;;9.43;;
69523;SDS011;56723;42.694;23.286;2023-02-18T18:28:43;12.43;;;7.00;;
69523;SDS011;56723;42.694;23.286;2023-02-18T18:31:11;10.30;;;5.28;;
69523;SDS011;56723;42.694;23.286;2023-02-18T18:33:41;12.93;;;6.80;;
69523;SDS011;56723;42.694;23.286;2023-02-18T18:36:08;9.88;;;5.65;;
69523;SDS011;56723;42.694;23.286;2023-02-18T18:38:35;14.70;;;7.57;;
69523;SDS011;56723;42.694;23.286;2023-02-18T18:41:02;22.77;;;12.87;;
69523;SDS011;56723;42.694;23.286;2023-02-18T18:43:30;24.08;;;11.10;;
69523;SDS011;56723;42.694;23.286;2023-02-18T18:45:58;13.02;;;6.18;;
69523;SDS011;56723;42.694;23.286;2023-02-18T18:48:26;26.17;;;13.40;;
69523;SDS011;56723;42.694;23.286;2023-02-18T18:50:54;20.50;;;9.85;;
69523;SDS011;56723;42.694;23.286;2023-02-18T18:53:24;29.70;;;13.95;;
69523;SDS011;56723;42.694;23.286;2023-02-18T18:55:53;14.75;;;7.88;;
69523;SDS011;56723;42.694;23.286;2023-02-18T18:58:23;25.60;;;12.77;;
69523;SDS011;56723;42.694;23.286;2023-02-18T19:00:51;19.95;;;10.60;;
69523;SDS011;56723;42.694;23.286;2023-02-18T19:03:22;26.50;;;13.17;;
69523;SDS011;56723;42.694;23.286;2023-02-18T19:05:50;22.40;;;11.27;;
69523;SDS011;56723;42.694;23.286;2023-02-18T19:08:18;15.02;;;10.25;;
69523;SDS011;56723;42.694;23.286;2023-02-18T19:10:50;19.58;;;11.38;;
69523;SDS011;56723;42.694;23.286;2023-02-18T19:13:23;17.33;;;10.55;;
69523;SDS011;56723;42.694;23.286;2023-02-18T19:16:05;15.30;;;8.05;;
69523;SDS011;56723;42.694;23.286;2023-02-18T19:18:40;16.23;;;6.70;;
69523;SDS011;56723;42.694;23.286;2023-02-18T19:21:07;15.98;;;8.35;;
69523;SDS011;56723;42.694;23.286;2023-02-18T19:23:34;11.40;;;6.60;;
69523;SDS011;56723;42.694;23.286;2023-02-18T19:26:02;11.30;;;7.53;;